sensor_id;sensor_type;location;lat;lon;timestamp;temperature;humidity
8994;DHT22;4532;50.886;4.700;2022-10-31T00:01:30;16.90;99.90
8994;DHT22;4532;50.886;4.700;2022-10-31T00:04:00;16.90;99.90
8994;DHT22;4532;50.886;4.700;2022-10-31T00:06:27;16.90;99.90
8994;DHT22;4532;50.886;4.700;2022-10-31T00:08:57;16.90;99.90
8994;DHT22;4532;50.886;4.700;2022-10-31T00:11:25;16.90;99.90
8994;DHT22;4532;50.886;4.700;2022-10-31T00:13:53;16.90;99.90
8994;DHT22;4532;50.886;4.700;2022-10-31T00:16:22;16.90;99.90
8994;DHT22;4532;50.886;4.700;2022-10-31T00:18:55;16.90;99.90
8994;DHT22;4532;50.886;4.700;2022-10-31T00:21:24;16.90;99.90
8994;DHT22;4532;50.886;4.700;2022-10-31T00:23:51;16.90;99.90
8994;DHT22;4532;50.886;4.700;2022-10-31T00:26:18;16.80;99.90
8994;DHT22;4532;50.886;4.700;2022-10-31T00:28:46;16.90;99.90
8994;DHT22;4532;50.886;4.700;2022-10-31T00:31:13;16.90;99.90
8994;DHT22;4532;50.886;4.700;2022-10-31T00:33:41;16.80;99.90
8994;DHT22;4532;50.886;4.700;2022-10-31T00:36:15;16.80;99.90
8994;DHT22;4532;50.886;4.700;2022-10-31T00:38:45;16.80;99.90
8994;DHT22;4532;50.886;4.700;2022-10-31T00:41:15;16.70;99.90
8994;DHT22;4532;50.886;4.700;2022-10-31T00:43:42;16.70;99.90
8994;DHT22;4532;50.886;4.700;2022-10-31T00:46:11;16.70;99.90
8994;DHT22;4532;50.886;4.700;2022-10-31T00:48:38;16.60;99.90
8994;DHT22;4532;50.886;4.700;2022-10-31T00:51:06;16.70;99.90
8994;DHT22;4532;50.886;4.700;2022-10-31T00:53:33;16.60;99.90
8994;DHT22;4532;50.886;4.700;2022-10-31T00:56:01;16.60;99.90
8994;DHT22;4532;50.886;4.700;2022-10-31T00:58:28;16.50;99.90
8994;DHT22;4532;50.886;4.700;2022-10-31T01:00:55;16.50;99.90
8994;DHT22;4532;50.886;4.700;2022-10-31T01:03:24;16.50;99.90
8994;DHT22;4532;50.886;4.700;2022-10-31T01:05:59;16.50;99.90
8994;DHT22;4532;50.886;4.700;2022-10-31T01:08:27;16.40;99.90
8994;DHT22;4532;50.886;4.700;2022-10-31T01:13:34;16.30;99.90
8994;DHT22;4532;50.886;4.700;2022-10-31T01:16:03;16.30;99.90
8994;DHT22;4532;50.886;4.700;2022-10-31T01:18:31;16.30;99.90
8994;DHT22;4532;50.886;4.700;2022-10-31T01:21:07;16.30;99.90
8994;DHT22;4532;50.886;4.700;2022-10-31T01:23:35;16.20;99.90
8994;DHT22;4532;50.886;4.700;2022-10-31T01:26:14;16.20;99.90
8994;DHT22;4532;50.886;4.700;2022-10-31T01:28:50;16.20;99.90
8994;DHT22;4532;50.886;4.700;2022-10-31T01:31:19;16.20;99.90
8994;DHT22;4532;50.886;4.700;2022-10-31T01:33:47;16.10;99.90
8994;DHT22;4532;50.886;4.700;2022-10-31T01:39:01;16.10;99.90
8994;DHT22;4532;50.886;4.700;2022-10-31T01:41:31;16.10;99.90
8994;DHT22;4532;50.886;4.700;2022-10-31T01:44:00;16.10;99.90
8994;DHT22;4532;50.886;4.700;2022-10-31T01:46:38;16.10;99.90
8994;DHT22;4532;50.886;4.700;2022-10-31T01:49:15;16.00;99.90
8994;DHT22;4532;50.886;4.700;2022-10-31T01:51:54;16.00;99.90
8994;DHT22;4532;50.886;4.700;2022-10-31T01:54:29;16.00;99.90
8994;DHT22;4532;50.886;4.700;2022-10-31T01:56:59;16.00;99.90
8994;DHT22;4532;50.886;4.700;2022-10-31T01:59:33;15.90;99.90
8994;DHT22;4532;50.886;4.700;2022-10-31T02:02:03;16.00;99.90
8994;DHT22;4532;50.886;4.700;2022-10-31T02:04:30;15.90;99.90
8994;DHT22;4532;50.886;4.700;2022-10-31T02:07:03;15.90;99.90
8994;DHT22;4532;50.886;4.700;2022-10-31T02:09:32;15.90;99.90
8994;DHT22;4532;50.886;4.700;2022-10-31T02:12:00;15.90;99.90
8994;DHT22;4532;50.886;4.700;2022-10-31T02:14:30;15.90;99.90
8994;DHT22;4532;50.886;4.700;2022-10-31T02:17:02;15.90;99.90
8994;DHT22;4532;50.886;4.700;2022-10-31T02:22:27;15.80;99.90
8994;DHT22;4532;50.886;4.700;2022-10-31T02:25:19;15.80;99.90
8994;DHT22;4532;50.886;4.700;2022-10-31T02:28:47;15.80;99.90
8994;DHT22;4532;50.886;4.700;2022-10-31T02:33:52;15.70;99.90
8994;DHT22;4532;50.886;4.700;2022-10-31T02:41:52;15.50;99.90
8994;DHT22;4532;50.886;4.700;2022-10-31T02:44:42;15.50;99.90
8994;DHT22;4532;50.886;4.700;2022-10-31T02:47:16;15.40;99.90
8994;DHT22;4532;50.886;4.700;2022-10-31T02:49:53;15.30;99.90
8994;DHT22;4532;50.886;4.700;2022-10-31T02:52:25;15.30;99.90
8994;DHT22;4532;50.886;4.700;2022-10-31T02:54:52;15.30;99.90
8994;DHT22;4532;50.886;4.700;2022-10-31T02:57:25;15.30;99.90
8994;DHT22;4532;50.886;4.700;2022-10-31T03:00:06;15.30;99.90
8994;DHT22;4532;50.886;4.700;2022-10-31T03:08:12;15.20;99.90
8994;DHT22;4532;50.886;4.700;2022-10-31T03:11:02;15.20;99.90
8994;DHT22;4532;50.886;4.700;2022-10-31T03:16:26;15.20;99.90
8994;DHT22;4532;50.886;4.700;2022-10-31T03:19:05;15.20;99.90
8994;DHT22;4532;50.886;4.700;2022-10-31T03:21:36;15.10;99.90
8994;DHT22;4532;50.886;4.700;2022-10-31T03:24:12;15.10;99.90
8994;DHT22;4532;50.886;4.700;2022-10-31T03:26:47;15.00;99.90
8994;DHT22;4532;50.886;4.700;2022-10-31T03:29:17;15.10;99.90
8994;DHT22;4532;50.886;4.700;2022-10-31T03:31:50;15.00;99.90
8994;DHT22;4532;50.886;4.700;2022-10-31T03:34:19;15.00;99.90
8994;DHT22;4532;50.886;4.700;2022-10-31T03:36:51;15.00;99.90
8994;DHT22;4532;50.886;4.700;2022-10-31T03:39:21;15.00;99.90
8994;DHT22;4532;50.886;4.700;2022-10-31T03:42:21;15.00;99.90
8994;DHT22;4532;50.886;4.700;2022-10-31T03:45:19;15.00;99.90
8994;DHT22;4532;50.886;4.700;2022-10-31T03:47:43;15.00;99.90
8994;DHT22;4532;50.886;4.700;2022-10-31T03:50:13;15.00;99.90
8994;DHT22;4532;50.886;4.700;2022-10-31T03:53:00;15.00;99.90
8994;DHT22;4532;50.886;4.700;2022-10-31T03:55:40;14.90;99.90
8994;DHT22;4532;50.886;4.700;2022-10-31T03:58:37;14.90;99.90
8994;DHT22;4532;50.886;4.700;2022-10-31T04:01:09;14.90;99.90
8994;DHT22;4532;50.886;4.700;2022-10-31T04:03:39;14.90;99.90
8994;DHT22;4532;50.886;4.700;2022-10-31T04:06:08;14.90;99.90
8994;DHT22;4532;50.886;4.700;2022-10-31T04:08:44;14.90;99.90
8994;DHT22;4532;50.886;4.700;2022-10-31T04:11:13;14.90;99.90
8994;DHT22;4532;50.886;4.700;2022-10-31T04:13:44;14.80;99.90
8994;DHT22;4532;50.886;4.700;2022-10-31T04:16:13;14.80;99.90
8994;DHT22;4532;50.886;4.700;2022-10-31T04:18:43;14.80;99.90
8994;DHT22;4532;50.886;4.700;2022-10-31T04:21:10;14.80;99.90
8994;DHT22;4532;50.886;4.700;2022-10-31T04:23:38;14.80;99.90
8994;DHT22;4532;50.886;4.700;2022-10-31T04:26:05;14.80;99.90
8994;DHT22;4532;50.886;4.700;2022-10-31T04:28:32;14.70;99.90
8994;DHT22;4532;50.886;4.700;2022-10-31T04:31:00;14.70;99.90
8994;DHT22;4532;50.886;4.700;2022-10-31T04:33:27;14.70;99.90
8994;DHT22;4532;50.886;4.700;2022-10-31T04:35:55;14.60;99.90
8994;DHT22;4532;50.886;4.700;2022-10-31T04:38:22;14.60;99.90
8994;DHT22;4532;50.886;4.700;2022-10-31T04:40:49;14.60;99.90
8994;DHT22;4532;50.886;4.700;2022-10-31T04:43:16;14.60;99.90
8994;DHT22;4532;50.886;4.700;2022-10-31T04:45:43;14.60;99.90
8994;DHT22;4532;50.886;4.700;2022-10-31T04:48:10;14.60;99.90
8994;DHT22;4532;50.886;4.700;2022-10-31T04:50:37;14.60;99.90
8994;DHT22;4532;50.886;4.700;2022-10-31T04:53:04;14.60;99.90
8994;DHT22;4532;50.886;4.700;2022-10-31T04:55:35;14.60;99.90
8994;DHT22;4532;50.886;4.700;2022-10-31T04:58:02;14.60;99.90
8994;DHT22;4532;50.886;4.700;2022-10-31T05:00:32;14.60;99.90
8994;DHT22;4532;50.886;4.700;2022-10-31T05:03:00;14.60;99.90
8994;DHT22;4532;50.886;4.700;2022-10-31T05:05:29;14.60;99.90
8994;DHT22;4532;50.886;4.700;2022-10-31T05:07:57;14.60;99.90
8994;DHT22;4532;50.886;4.700;2022-10-31T05:10:27;14.60;99.90
8994;DHT22;4532;50.886;4.700;2022-10-31T05:12:56;14.70;99.90
8994;DHT22;4532;50.886;4.700;2022-10-31T05:15:32;14.70;99.90
8994;DHT22;4532;50.886;4.700;2022-10-31T05:18:00;14.70;99.90
8994;DHT22;4532;50.886;4.700;2022-10-31T05:20:29;14.70;99.90
8994;DHT22;4532;50.886;4.700;2022-10-31T05:22:58;14.70;99.90
8994;DHT22;4532;50.886;4.700;2022-10-31T05:25:27;14.70;99.90
8994;DHT22;4532;50.886;4.700;2022-10-31T05:27:55;14.70;99.90
8994;DHT22;4532;50.886;4.700;2022-10-31T05:30:28;14.60;99.90
8994;DHT22;4532;50.886;4.700;2022-10-31T05:32:55;14.60;99.90
8994;DHT22;4532;50.886;4.700;2022-10-31T05:35:31;14.60;99.90
8994;DHT22;4532;50.886;4.700;2022-10-31T05:37:59;14.60;99.90
8994;DHT22;4532;50.886;4.700;2022-10-31T05:40:26;14.60;99.90
8994;DHT22;4532;50.886;4.700;2022-10-31T05:42:55;14.60;99.90
8994;DHT22;4532;50.886;4.700;2022-10-31T05:45:23;14.60;99.90
8994;DHT22;4532;50.886;4.700;2022-10-31T05:47:58;14.60;99.90
8994;DHT22;4532;50.886;4.700;2022-10-31T05:50:30;14.70;99.90
8994;DHT22;4532;50.886;4.700;2022-10-31T05:53:03;14.60;99.90
8994;DHT22;4532;50.886;4.700;2022-10-31T05:55:32;14.70;99.90
8994;DHT22;4532;50.886;4.700;2022-10-31T05:58:00;14.70;99.90
8994;DHT22;4532;50.886;4.700;2022-10-31T06:00:28;14.70;99.90
8994;DHT22;4532;50.886;4.700;2022-10-31T06:03:05;14.70;99.90
8994;DHT22;4532;50.886;4.700;2022-10-31T06:05:33;14.70;99.90
8994;DHT22;4532;50.886;4.700;2022-10-31T06:08:00;14.70;99.90
8994;DHT22;4532;50.886;4.700;2022-10-31T06:10:28;14.70;99.90
8994;DHT22;4532;50.886;4.700;2022-10-31T06:12:58;14.70;99.90
8994;DHT22;4532;50.886;4.700;2022-10-31T06:15:25;14.70;99.90
8994;DHT22;4532;50.886;4.700;2022-10-31T06:18:03;14.70;99.90
8994;DHT22;4532;50.886;4.700;2022-10-31T06:20:31;14.70;99.90
8994;DHT22;4532;50.886;4.700;2022-10-31T06:22:59;14.70;99.90
8994;DHT22;4532;50.886;4.700;2022-10-31T06:25:27;14.70;99.90
8994;DHT22;4532;50.886;4.700;2022-10-31T06:27:54;14.70;99.90
8994;DHT22;4532;50.886;4.700;2022-10-31T06:30:22;14.70;99.90
8994;DHT22;4532;50.886;4.700;2022-10-31T06:32:54;14.70;99.90
8994;DHT22;4532;50.886;4.700;2022-10-31T06:35:28;14.70;99.90
8994;DHT22;4532;50.886;4.700;2022-10-31T06:37:55;14.70;99.90
8994;DHT22;4532;50.886;4.700;2022-10-31T06:40:23;14.70;99.90
8994;DHT22;4532;50.886;4.700;2022-10-31T06:42:58;14.70;99.90
8994;DHT22;4532;50.886;4.700;2022-10-31T06:45:25;14.70;99.90
8994;DHT22;4532;50.886;4.700;2022-10-31T06:47:53;14.80;99.90
8994;DHT22;4532;50.886;4.700;2022-10-31T06:50:42;14.70;99.90
8994;DHT22;4532;50.886;4.700;2022-10-31T06:53:10;14.80;99.90
8994;DHT22;4532;50.886;4.700;2022-10-31T06:55:37;14.80;99.90
8994;DHT22;4532;50.886;4.700;2022-10-31T06:58:09;14.80;99.90
8994;DHT22;4532;50.886;4.700;2022-10-31T07:00:37;14.80;99.90
8994;DHT22;4532;50.886;4.700;2022-10-31T07:03:10;14.90;99.90
8994;DHT22;4532;50.886;4.700;2022-10-31T07:05:38;14.90;99.90
8994;DHT22;4532;50.886;4.700;2022-10-31T07:08:07;14.90;99.90
8994;DHT22;4532;50.886;4.700;2022-10-31T07:10:36;14.90;99.90
8994;DHT22;4532;50.886;4.700;2022-10-31T07:13:12;15.00;99.90
8994;DHT22;4532;50.886;4.700;2022-10-31T07:15:41;15.00;99.90
8994;DHT22;4532;50.886;4.700;2022-10-31T07:18:10;15.00;99.90
8994;DHT22;4532;50.886;4.700;2022-10-31T07:20:38;15.00;99.90
8994;DHT22;4532;50.886;4.700;2022-10-31T07:23:05;15.10;99.90
8994;DHT22;4532;50.886;4.700;2022-10-31T07:25:33;15.10;99.90
8994;DHT22;4532;50.886;4.700;2022-10-31T07:28:02;15.20;99.90
8994;DHT22;4532;50.886;4.700;2022-10-31T07:30:30;15.20;99.90
8994;DHT22;4532;50.886;4.700;2022-10-31T07:32:59;15.20;99.90
8994;DHT22;4532;50.886;4.700;2022-10-31T07:35:27;15.30;99.90
8994;DHT22;4532;50.886;4.700;2022-10-31T07:37:55;15.30;99.90
8994;DHT22;4532;50.886;4.700;2022-10-31T07:40:23;15.30;99.90
8994;DHT22;4532;50.886;4.700;2022-10-31T07:42:52;15.40;99.90
8994;DHT22;4532;50.886;4.700;2022-10-31T07:45:20;15.40;99.90
8994;DHT22;4532;50.886;4.700;2022-10-31T07:47:52;15.50;99.90
8994;DHT22;4532;50.886;4.700;2022-10-31T07:52:48;15.50;99.90
8994;DHT22;4532;50.886;4.700;2022-10-31T07:55:26;15.50;99.90
8994;DHT22;4532;50.886;4.700;2022-10-31T07:57:58;15.60;99.90
8994;DHT22;4532;50.886;4.700;2022-10-31T08:00:29;15.60;99.90
8994;DHT22;4532;50.886;4.700;2022-10-31T08:03:17;15.60;99.90
8994;DHT22;4532;50.886;4.700;2022-10-31T08:05:44;15.70;99.90
8994;DHT22;4532;50.886;4.700;2022-10-31T08:08:13;15.70;99.90
8994;DHT22;4532;50.886;4.700;2022-10-31T08:10:41;15.70;99.90
8994;DHT22;4532;50.886;4.700;2022-10-31T08:13:11;15.80;99.90
8994;DHT22;4532;50.886;4.700;2022-10-31T08:15:39;15.80;99.90
8994;DHT22;4532;50.886;4.700;2022-10-31T08:18:14;15.80;99.90
8994;DHT22;4532;50.886;4.700;2022-10-31T08:20:43;15.90;99.90
8994;DHT22;4532;50.886;4.700;2022-10-31T08:23:13;15.90;99.90
8994;DHT22;4532;50.886;4.700;2022-10-31T08:25:43;15.90;99.90
8994;DHT22;4532;50.886;4.700;2022-10-31T08:28:11;16.00;99.90
8994;DHT22;4532;50.886;4.700;2022-10-31T08:30:39;16.00;99.90
8994;DHT22;4532;50.886;4.700;2022-10-31T08:33:16;16.00;99.90
8994;DHT22;4532;50.886;4.700;2022-10-31T08:35:44;16.10;99.90
8994;DHT22;4532;50.886;4.700;2022-10-31T08:38:12;16.10;99.90
8994;DHT22;4532;50.886;4.700;2022-10-31T08:40:42;16.20;99.90
8994;DHT22;4532;50.886;4.700;2022-10-31T08:43:12;16.20;99.90
8994;DHT22;4532;50.886;4.700;2022-10-31T08:45:40;16.30;99.90
8994;DHT22;4532;50.886;4.700;2022-10-31T08:48:11;16.30;99.90
8994;DHT22;4532;50.886;4.700;2022-10-31T08:50:38;16.40;99.90
8994;DHT22;4532;50.886;4.700;2022-10-31T08:53:09;16.40;99.90
8994;DHT22;4532;50.886;4.700;2022-10-31T08:55:40;16.50;99.90
8994;DHT22;4532;50.886;4.700;2022-10-31T08:58:14;16.50;99.90
8994;DHT22;4532;50.886;4.700;2022-10-31T09:00:41;16.60;99.90
8994;DHT22;4532;50.886;4.700;2022-10-31T09:03:13;16.60;99.90
8994;DHT22;4532;50.886;4.700;2022-10-31T09:05:41;16.70;99.90
8994;DHT22;4532;50.886;4.700;2022-10-31T09:08:12;16.70;99.90
8994;DHT22;4532;50.886;4.700;2022-10-31T09:10:43;16.80;99.90
8994;DHT22;4532;50.886;4.700;2022-10-31T09:13:16;16.80;99.90
8994;DHT22;4532;50.886;4.700;2022-10-31T09:15:46;16.80;99.90
8994;DHT22;4532;50.886;4.700;2022-10-31T09:18:18;16.80;99.90
8994;DHT22;4532;50.886;4.700;2022-10-31T09:20:47;16.90;99.90
8994;DHT22;4532;50.886;4.700;2022-10-31T09:23:20;16.90;99.90
8994;DHT22;4532;50.886;4.700;2022-10-31T09:25:53;17.00;99.90
8994;DHT22;4532;50.886;4.700;2022-10-31T09:28:22;17.00;99.90
8994;DHT22;4532;50.886;4.700;2022-10-31T09:30:53;17.10;99.90
8994;DHT22;4532;50.886;4.700;2022-10-31T09:33:21;17.10;99.90
8994;DHT22;4532;50.886;4.700;2022-10-31T09:35:49;17.10;99.90
8994;DHT22;4532;50.886;4.700;2022-10-31T09:38:20;17.20;99.90
8994;DHT22;4532;50.886;4.700;2022-10-31T09:43:46;17.30;99.90
8994;DHT22;4532;50.886;4.700;2022-10-31T09:51:49;17.40;99.90
8994;DHT22;4532;50.886;4.700;2022-10-31T09:54:25;17.40;99.90
8994;DHT22;4532;50.886;4.700;2022-10-31T09:56:56;17.50;99.90
8994;DHT22;4532;50.886;4.700;2022-10-31T09:59:35;17.50;99.90
8994;DHT22;4532;50.886;4.700;2022-10-31T10:02:10;17.50;99.90
8994;DHT22;4532;50.886;4.700;2022-10-31T10:04:58;17.50;99.90
8994;DHT22;4532;50.886;4.700;2022-10-31T10:10:17;17.70;99.90
8994;DHT22;4532;50.886;4.700;2022-10-31T10:13:06;17.70;99.90
8994;DHT22;4532;50.886;4.700;2022-10-31T10:16:03;17.80;99.90
8994;DHT22;4532;50.886;4.700;2022-10-31T10:27:23;18.00;99.90
8994;DHT22;4532;50.886;4.700;2022-10-31T10:30:03;18.10;99.90
8994;DHT22;4532;50.886;4.700;2022-10-31T10:32:43;18.20;99.90
8994;DHT22;4532;50.886;4.700;2022-10-31T10:37:51;18.20;99.90
8994;DHT22;4532;50.886;4.700;2022-10-31T10:40:27;18.30;99.90
8994;DHT22;4532;50.886;4.700;2022-10-31T10:49:16;18.40;99.90
8994;DHT22;4532;50.886;4.700;2022-10-31T10:55:08;18.50;99.90
8994;DHT22;4532;50.886;4.700;2022-10-31T11:02:53;18.70;99.90
8994;DHT22;4532;50.886;4.700;2022-10-31T11:07:53;18.80;99.90
8994;DHT22;4532;50.886;4.700;2022-10-31T11:10:21;18.90;99.90
8994;DHT22;4532;50.886;4.700;2022-10-31T11:13:22;18.90;99.90
8994;DHT22;4532;50.886;4.700;2022-10-31T11:15:55;19.00;99.90
8994;DHT22;4532;50.886;4.700;2022-10-31T11:18:25;19.10;99.90
8994;DHT22;4532;50.886;4.700;2022-10-31T11:20:58;19.10;99.90
8994;DHT22;4532;50.886;4.700;2022-10-31T11:23:29;19.20;99.90
8994;DHT22;4532;50.886;4.700;2022-10-31T11:26:04;19.30;99.90
8994;DHT22;4532;50.886;4.700;2022-10-31T11:28:33;19.30;99.90
8994;DHT22;4532;50.886;4.700;2022-10-31T11:31:12;19.40;99.90
8994;DHT22;4532;50.886;4.700;2022-10-31T11:33:46;19.40;99.90
8994;DHT22;4532;50.886;4.700;2022-10-31T11:38:44;19.50;99.90
8994;DHT22;4532;50.886;4.700;2022-10-31T11:41:14;19.60;99.90
8994;DHT22;4532;50.886;4.700;2022-10-31T11:43:57;19.60;99.90
8994;DHT22;4532;50.886;4.700;2022-10-31T11:46:38;19.60;99.90
8994;DHT22;4532;50.886;4.700;2022-10-31T11:49:16;19.60;99.90
8994;DHT22;4532;50.886;4.700;2022-10-31T11:51:49;19.70;99.90
8994;DHT22;4532;50.886;4.700;2022-10-31T11:54:29;19.70;99.90
8994;DHT22;4532;50.886;4.700;2022-10-31T11:56:57;19.80;99.90
8994;DHT22;4532;50.886;4.700;2022-10-31T11:59:28;19.80;99.90
8994;DHT22;4532;50.886;4.700;2022-10-31T12:01:57;19.80;99.90
8994;DHT22;4532;50.886;4.700;2022-10-31T12:04:53;19.90;99.90
8994;DHT22;4532;50.886;4.700;2022-10-31T12:07:18;19.90;99.90
8994;DHT22;4532;50.886;4.700;2022-10-31T12:09:45;20.00;99.90
8994;DHT22;4532;50.886;4.700;2022-10-31T12:12:35;20.00;99.90
8994;DHT22;4532;50.886;4.700;2022-10-31T12:23:27;20.00;99.90
8994;DHT22;4532;50.886;4.700;2022-10-31T12:32:01;20.10;99.90
8994;DHT22;4532;50.886;4.700;2022-10-31T12:45:13;20.20;99.90
8994;DHT22;4532;50.886;4.700;2022-10-31T12:47:50;20.30;99.90
8994;DHT22;4532;50.886;4.700;2022-10-31T12:53:16;20.30;99.90
8994;DHT22;4532;50.886;4.700;2022-10-31T13:01:18;20.40;99.90
8994;DHT22;4532;50.886;4.700;2022-10-31T13:07:02;20.40;99.90
8994;DHT22;4532;50.886;4.700;2022-10-31T13:09:36;20.40;99.90
8994;DHT22;4532;50.886;4.700;2022-10-31T13:12:08;20.40;99.90
8994;DHT22;4532;50.886;4.700;2022-10-31T13:14:40;20.40;99.90
8994;DHT22;4532;50.886;4.700;2022-10-31T13:17:23;20.50;99.90
8994;DHT22;4532;50.886;4.700;2022-10-31T13:20:03;20.50;99.90
8994;DHT22;4532;50.886;4.700;2022-10-31T13:22:33;20.50;99.90
8994;DHT22;4532;50.886;4.700;2022-10-31T13:25:17;20.50;99.90
8994;DHT22;4532;50.886;4.700;2022-10-31T13:27:59;20.50;99.90
8994;DHT22;4532;50.886;4.700;2022-10-31T13:30:33;20.60;99.90
8994;DHT22;4532;50.886;4.700;2022-10-31T13:38:48;20.60;99.90
8994;DHT22;4532;50.886;4.700;2022-10-31T13:44:21;20.70;99.90
8994;DHT22;4532;50.886;4.700;2022-10-31T13:46:52;20.70;99.90
8994;DHT22;4532;50.886;4.700;2022-10-31T13:52:12;20.70;99.90
8994;DHT22;4532;50.886;4.700;2022-10-31T13:54:45;20.70;99.90
8994;DHT22;4532;50.886;4.700;2022-10-31T13:57:37;20.70;99.90
8994;DHT22;4532;50.886;4.700;2022-10-31T14:02:52;20.70;99.90
8994;DHT22;4532;50.886;4.700;2022-10-31T14:05:33;20.70;99.90
8994;DHT22;4532;50.886;4.700;2022-10-31T14:08:05;20.70;99.90
8994;DHT22;4532;50.886;4.700;2022-10-31T14:10:36;20.70;99.90
8994;DHT22;4532;50.886;4.700;2022-10-31T14:13:13;20.60;99.90
8994;DHT22;4532;50.886;4.700;2022-10-31T14:15:52;20.60;99.90
8994;DHT22;4532;50.886;4.700;2022-10-31T14:18:32;20.60;99.90
8994;DHT22;4532;50.886;4.700;2022-10-31T14:21:00;20.60;99.90
8994;DHT22;4532;50.886;4.700;2022-10-31T14:31:38;20.60;99.90
8994;DHT22;4532;50.886;4.700;2022-10-31T14:34:28;20.60;99.90
8994;DHT22;4532;50.886;4.700;2022-10-31T14:42:37;20.60;99.90
8994;DHT22;4532;50.886;4.700;2022-10-31T14:50:59;20.60;99.90
8994;DHT22;4532;50.886;4.700;2022-10-31T14:53:33;20.50;99.90
8994;DHT22;4532;50.886;4.700;2022-10-31T14:56:02;20.50;99.90
8994;DHT22;4532;50.886;4.700;2022-10-31T14:58:47;20.50;99.90
8994;DHT22;4532;50.886;4.700;2022-10-31T15:04:15;20.50;99.90
8994;DHT22;4532;50.886;4.700;2022-10-31T15:07:24;20.50;99.90
8994;DHT22;4532;50.886;4.700;2022-10-31T15:10:00;20.50;99.90
8994;DHT22;4532;50.886;4.700;2022-10-31T15:12:34;20.50;99.90
8994;DHT22;4532;50.886;4.700;2022-10-31T15:15:12;20.40;99.90
8994;DHT22;4532;50.886;4.700;2022-10-31T15:17:44;20.50;99.90
8994;DHT22;4532;50.886;4.700;2022-10-31T15:20:28;20.50;99.90
8994;DHT22;4532;50.886;4.700;2022-10-31T15:22:56;20.40;99.90
8994;DHT22;4532;50.886;4.700;2022-10-31T15:25:27;20.40;99.90
8994;DHT22;4532;50.886;4.700;2022-10-31T15:27:57;20.40;99.90
8994;DHT22;4532;50.886;4.700;2022-10-31T15:30:28;20.40;99.90
8994;DHT22;4532;50.886;4.700;2022-10-31T15:32:55;20.40;99.90
8994;DHT22;4532;50.886;4.700;2022-10-31T15:35:30;20.40;99.90
8994;DHT22;4532;50.886;4.700;2022-10-31T15:37:58;20.40;99.90
8994;DHT22;4532;50.886;4.700;2022-10-31T15:40:27;20.30;99.90
8994;DHT22;4532;50.886;4.700;2022-10-31T15:43:02;20.30;99.90
8994;DHT22;4532;50.886;4.700;2022-10-31T15:45:31;20.30;99.90
8994;DHT22;4532;50.886;4.700;2022-10-31T15:48:02;20.30;99.90
8994;DHT22;4532;50.886;4.700;2022-10-31T15:50:32;20.30;99.90
8994;DHT22;4532;50.886;4.700;2022-10-31T15:53:03;20.20;99.90
8994;DHT22;4532;50.886;4.700;2022-10-31T15:55:38;20.20;99.90
8994;DHT22;4532;50.886;4.700;2022-10-31T15:58:14;20.20;99.90
8994;DHT22;4532;50.886;4.700;2022-10-31T16:00:41;20.10;99.90
8994;DHT22;4532;50.886;4.700;2022-10-31T16:05:50;20.10;99.90
8994;DHT22;4532;50.886;4.700;2022-10-31T16:13:40;19.90;99.90
8994;DHT22;4532;50.886;4.700;2022-10-31T16:16:17;19.90;99.90
8994;DHT22;4532;50.886;4.700;2022-10-31T16:19:03;19.90;99.90
8994;DHT22;4532;50.886;4.700;2022-10-31T16:21:36;19.80;99.90
8994;DHT22;4532;50.886;4.700;2022-10-31T16:24:18;19.80;99.90
8994;DHT22;4532;50.886;4.700;2022-10-31T16:26:54;19.70;99.90
8994;DHT22;4532;50.886;4.700;2022-10-31T16:29:26;19.70;99.90
8994;DHT22;4532;50.886;4.700;2022-10-31T16:31:56;19.70;99.90
8994;DHT22;4532;50.886;4.700;2022-10-31T16:34:23;19.60;99.90
8994;DHT22;4532;50.886;4.700;2022-10-31T16:36:53;19.60;99.90
8994;DHT22;4532;50.886;4.700;2022-10-31T16:39:20;19.60;99.90
8994;DHT22;4532;50.886;4.700;2022-10-31T16:41:50;19.50;99.90
8994;DHT22;4532;50.886;4.700;2022-10-31T16:44:22;19.50;99.90
8994;DHT22;4532;50.886;4.700;2022-10-31T16:47:08;19.50;99.90
8994;DHT22;4532;50.886;4.700;2022-10-31T16:49:36;19.40;99.90
8994;DHT22;4532;50.886;4.700;2022-10-31T16:52:04;19.40;99.90
8994;DHT22;4532;50.886;4.700;2022-10-31T16:54:33;19.40;99.90
8994;DHT22;4532;50.886;4.700;2022-10-31T16:57:02;19.30;99.90
8994;DHT22;4532;50.886;4.700;2022-10-31T16:59:33;19.30;99.90
8994;DHT22;4532;50.886;4.700;2022-10-31T17:02:03;19.20;99.90
8994;DHT22;4532;50.886;4.700;2022-10-31T17:04:30;19.20;99.90
8994;DHT22;4532;50.886;4.700;2022-10-31T17:07:00;19.20;99.90
8994;DHT22;4532;50.886;4.700;2022-10-31T17:09:27;19.10;99.90
8994;DHT22;4532;50.886;4.700;2022-10-31T17:11:55;19.10;99.90
8994;DHT22;4532;50.886;4.700;2022-10-31T17:14:24;19.10;99.90
8994;DHT22;4532;50.886;4.700;2022-10-31T17:16:52;19.10;99.90
8994;DHT22;4532;50.886;4.700;2022-10-31T17:19:19;19.00;99.90
8994;DHT22;4532;50.886;4.700;2022-10-31T17:21:46;19.00;99.90
8994;DHT22;4532;50.886;4.700;2022-10-31T17:24:14;19.00;99.90
8994;DHT22;4532;50.886;4.700;2022-10-31T17:26:41;18.90;99.90
8994;DHT22;4532;50.886;4.700;2022-10-31T17:29:09;18.90;99.90
8994;DHT22;4532;50.886;4.700;2022-10-31T17:31:38;18.80;99.90
8994;DHT22;4532;50.886;4.700;2022-10-31T17:34:06;18.80;99.90
8994;DHT22;4532;50.886;4.700;2022-10-31T17:36:34;18.80;99.90
8994;DHT22;4532;50.886;4.700;2022-10-31T17:39:02;18.80;99.90
8994;DHT22;4532;50.886;4.700;2022-10-31T17:41:31;18.70;99.90
8994;DHT22;4532;50.886;4.700;2022-10-31T17:43:58;18.70;99.90
8994;DHT22;4532;50.886;4.700;2022-10-31T17:46:26;18.60;99.90
8994;DHT22;4532;50.886;4.700;2022-10-31T17:48:54;18.60;99.90
8994;DHT22;4532;50.886;4.700;2022-10-31T17:51:21;18.60;99.90
8994;DHT22;4532;50.886;4.700;2022-10-31T17:53:48;18.60;99.90
8994;DHT22;4532;50.886;4.700;2022-10-31T17:56:16;18.50;99.90
8994;DHT22;4532;50.886;4.700;2022-10-31T17:58:45;18.50;99.90
8994;DHT22;4532;50.886;4.700;2022-10-31T18:01:14;18.40;99.90
8994;DHT22;4532;50.886;4.700;2022-10-31T18:03:42;18.40;99.90
8994;DHT22;4532;50.886;4.700;2022-10-31T18:06:11;18.40;99.90
8994;DHT22;4532;50.886;4.700;2022-10-31T18:08:40;18.30;99.90
8994;DHT22;4532;50.886;4.700;2022-10-31T18:11:09;18.30;99.90
8994;DHT22;4532;50.886;4.700;2022-10-31T18:13:37;18.20;99.90
8994;DHT22;4532;50.886;4.700;2022-10-31T18:16:09;18.20;99.90
8994;DHT22;4532;50.886;4.700;2022-10-31T18:18:37;18.20;99.90
8994;DHT22;4532;50.886;4.700;2022-10-31T18:21:07;18.10;99.90
8994;DHT22;4532;50.886;4.700;2022-10-31T18:23:34;18.10;99.90
8994;DHT22;4532;50.886;4.700;2022-10-31T18:26:04;18.10;99.90
8994;DHT22;4532;50.886;4.700;2022-10-31T18:28:31;18.10;99.90
8994;DHT22;4532;50.886;4.700;2022-10-31T18:30:59;18.00;99.90
8994;DHT22;4532;50.886;4.700;2022-10-31T18:33:27;18.00;99.90
8994;DHT22;4532;50.886;4.700;2022-10-31T18:35:54;18.00;99.90
8994;DHT22;4532;50.886;4.700;2022-10-31T18:38:22;18.00;99.90
8994;DHT22;4532;50.886;4.700;2022-10-31T18:40:50;18.00;99.90
8994;DHT22;4532;50.886;4.700;2022-10-31T18:43:17;18.00;99.90
8994;DHT22;4532;50.886;4.700;2022-10-31T18:45:47;17.90;99.90
8994;DHT22;4532;50.886;4.700;2022-10-31T18:48:21;17.90;99.90
8994;DHT22;4532;50.886;4.700;2022-10-31T18:50:48;17.90;99.90
8994;DHT22;4532;50.886;4.700;2022-10-31T18:53:15;17.90;99.90
8994;DHT22;4532;50.886;4.700;2022-10-31T18:55:42;17.80;99.90
8994;DHT22;4532;50.886;4.700;2022-10-31T18:58:18;17.80;99.90
8994;DHT22;4532;50.886;4.700;2022-10-31T19:00:45;17.80;99.90
8994;DHT22;4532;50.886;4.700;2022-10-31T19:03:13;17.80;99.90